Time;durP1;ratioP1;P1;durP2;ratioP2;P2;SDS_P1;SDS_P2;PMS_P1;PMS_P2;Temp;Humidity;BMP_temperature;BMP_pressure;BME280_temperature;BME280_humidity;BME280_pressure;Samples;Min_cycle;Max_cycle;Signal;HPM_P1;HPM_P2
2021/07/29 00:00:04;;;;;;;2.65;1.60;;;;;;;18.08;100.00;100212.09;4954191;28;20226;-74
2021/07/29 00:02:33;;;;;;;2.10;1.50;;;;;;;17.96;100.00;100208.44;4948683;28;20219;-73
2021/07/29 00:04:59;;;;;;;3.33;1.85;;;;;;;17.80;100.00;100204.63;4951315;29;20241;-73
2021/07/29 00:07:27;;;;;;;3.20;1.60;;;;;;;17.69;100.00;100203.41;4953386;28;20238;-74
2021/07/29 00:09:55;;;;;;;2.88;1.70;;;;;;;17.72;100.00;100209.03;4954402;28;20566;-74
2021/07/29 00:12:20;;;;;;;2.33;1.65;;;;;;;17.72;100.00;100210.97;4935139;29;20262;-74
2021/07/29 00:14:50;;;;;;;2.70;1.70;;;;;;;17.71;100.00;100206.63;4950929;29;20184;-74
2021/07/29 00:19:03;;;;;;;2.13;1.83;;;;;;;17.77;100.00;100199.81;4951332;28;20307;-74
2021/07/29 00:20:29;;;;;;;4.28;1.90;;;;;;;17.71;100.00;100194.81;4957705;28;20546;-74
2021/07/29 00:22:59;;;;;;;1.77;1.63;;;;;;;17.74;100.00;100192.22;4948655;28;20242;-73
2021/07/29 00:25:25;;;;;;;4.32;2.03;;;;;;;17.75;100.00;100191.91;4934342;28;20187;-73
2021/07/29 00:27:51;;;;;;;2.65;2.00;;;;;;;17.71;100.00;100189.31;4940248;29;20203;-74
2021/07/29 00:30:23;;;;;;;3.63;2.10;;;;;;;17.58;100.00;100190.34;4921534;28;20187;-74
2021/07/29 00:32:56;;;;;;;1.88;1.73;;;;;;;17.55;100.00;100188.28;4935338;28;20184;-74
2021/07/29 00:35:24;;;;;;;2.95;1.90;;;;;;;17.50;100.00;100189.25;4949775;29;20662;-74
2021/07/29 00:38:00;;;;;;;3.70;2.15;;;;;;;17.41;100.00;100191.22;4952995;29;20586;-74
2021/07/29 00:40:28;;;;;;;3.20;2.20;;;;;;;17.45;100.00;100180.38;4954000;28;20636;-74
2021/07/29 00:42:54;;;;;;;3.50;2.10;;;;;;;17.37;100.00;100176.53;4950886;29;20271;-74
2021/07/29 00:45:20;;;;;;;3.88;2.05;;;;;;;17.35;100.00;100181.53;4935313;29;20184;-74
2021/07/29 00:47:46;;;;;;;3.45;2.45;;;;;;;17.43;100.00;100171.66;4919507;29;20689;-74
2021/07/29 00:50:16;;;;;;;2.60;1.98;;;;;;;17.46;100.00;100166.31;4937842;28;20175;-74
2021/07/29 00:52:42;;;;;;;2.30;2.10;;;;;;;17.55;100.00;100169.84;4941549;28;20188;-74
2021/07/29 00:55:08;;;;;;;3.08;2.10;;;;;;;17.52;100.00;100159.50;4934719;29;20662;-75
2021/07/29 00:57:34;;;;;;;2.42;2.22;;;;;;;17.57;100.00;100156.59;4950053;28;20199;-74
2021/07/29 00:59:59;;;;;;;3.45;2.15;;;;;;;17.56;100.00;100152.22;4952809;29;20190;-73
2021/07/29 01:02:25;;;;;;;4.03;2.17;;;;;;;17.61;100.00;100152.03;4936899;29;20234;-75
2021/07/29 01:04:56;;;;;;;3.05;2.13;;;;;;;17.60;100.00;100147.69;4934606;29;20319;-74
2021/07/29 01:07:22;;;;;;;4.28;2.50;;;;;;;17.72;100.00;100143.09;4933917;28;20284;-74
2021/07/29 01:09:49;;;;;;;2.97;2.58;;;;;;;17.72;100.00;100138.75;4947847;29;20809;-74
2021/07/29 01:12:20;;;;;;;2.97;2.38;;;;;;;17.74;100.00;100140.00;4952748;28;20729;-74
2021/07/29 01:14:45;;;;;;;3.05;2.33;;;;;;;17.70;100.00;100136.31;4923140;29;20684;-74
2021/07/29 01:17:11;;;;;;;4.25;2.30;;;;;;;17.78;100.00;100135.47;4949447;28;20223;-74
2021/07/29 01:19:37;;;;;;;3.25;2.67;;;;;;;17.86;100.00;100142.88;4945126;29;20191;-74
2021/07/29 01:22:03;;;;;;;2.75;2.38;;;;;;;17.88;100.00;100137.84;4952749;28;20581;-74
2021/07/29 01:24:31;;;;;;;4.88;2.40;;;;;;;17.98;100.00;100129.19;4942854;29;20200;-75
2021/07/29 01:27:00;;;;;;;2.85;2.28;;;;;;;17.93;100.00;100127.47;4933274;28;20306;-73
2021/07/29 01:29:28;;;;;;;3.20;2.40;;;;;;;17.97;100.00;100114.66;4942238;29;20207;-75
2021/07/29 01:31:56;;;;;;;4.15;2.70;;;;;;;17.97;100.00;100122.13;4952332;28;20223;-75
2021/07/29 01:34:26;;;;;;;3.05;2.65;;;;;;;17.98;100.00;100127.25;4944694;28;20191;-75
2021/07/29 01:36:53;;;;;;;5.05;3.40;;;;;;;17.97;100.00;100111.13;4932875;28;20243;-72
2021/07/29 01:39:22;;;;;;;3.05;2.50;;;;;;;18.13;100.00;100113.78;4937151;29;20189;-74
2021/07/29 01:41:48;;;;;;;4.18;2.70;;;;;;;18.07;100.00;100129.97;4952132;28;20223;-75
2021/07/29 01:44:13;;;;;;;3.83;2.30;;;;;;;18.03;100.00;100120.78;4948425;29;20575;-73
2021/07/29 01:46:41;;;;;;;3.58;2.70;;;;;;;18.06;100.00;100117.34;4948467;28;20235;-74
2021/07/29 01:49:07;;;;;;;2.55;2.20;;;;;;;18.05;100.00;100124.78;4936855;29;20238;-74
2021/07/29 01:51:33;;;;;;;3.60;2.40;;;;;;;18.06;100.00;100120.09;4936110;29;20219;-73
2021/07/29 01:53:58;;;;;;;6.07;2.67;;;;;;;18.05;100.00;100121.25;4934170;29;20180;-74
2021/07/29 01:56:26;;;;;;;4.22;2.55;;;;;;;18.07;100.00;100110.72;4948578;28;20228;-74
2021/07/29 01:58:54;;;;;;;2.90;2.30;;;;;;;18.04;100.00;100106.69;4949501;29;20188;-73
2021/07/29 02:01:24;;;;;;;7.20;2.85;;;;;;;18.02;100.00;100113.66;4968039;28;20278;-74
2021/07/29 02:03:52;;;;;;;3.08;2.45;;;;;;;18.02;100.00;100113.66;4952336;29;20214;-73
2021/07/29 02:06:22;;;;;;;4.32;2.45;;;;;;;18.04;100.00;100105.88;4898362;29;20687;-74
2021/07/29 02:08:48;;;;;;;3.92;2.45;;;;;;;18.10;100.00;100107.34;4929074;29;20648;-74
2021/07/29 02:11:16;;;;;;;2.97;2.53;;;;;;;18.15;100.00;100114.25;4933718;28;20300;-74
2021/07/29 02:13:44;;;;;;;2.60;2.33;;;;;;;18.08;100.00;100104.09;4936101;29;20186;-74
2021/07/29 02:16:15;;;;;;;3.67;2.60;;;;;;;17.99;100.00;100112.38;4935023;29;20298;-74
2021/07/29 02:18:43;;;;;;;3.50;2.22;;;;;;;17.94;100.00;100111.78;4948500;29;20219;-73
2021/07/29 02:21:14;;;;;;;2.95;2.28;;;;;;;17.77;100.00;100101.69;4913090;29;20702;-74
2021/07/29 02:23:39;;;;;;;3.97;2.63;;;;;;;17.93;100.00;100102.72;4914121;29;20599;-73
2021/07/29 02:26:05;;;;;;;2.40;2.20;;;;;;;17.89;100.00;100114.69;4927957;29;20258;-74
2021/07/29 02:28:30;;;;;;;3.13;2.47;;;;;;;18.00;100.00;100115.94;4932254;29;20219;-74
2021/07/29 02:30:56;;;;;;;3.63;2.28;;;;;;;17.96;100.00;100109.50;4945064;29;20227;-74
2021/07/29 02:33:22;;;;;;;3.35;2.08;;;;;;;17.90;100.00;100113.59;4967908;28;20194;-75
2021/07/29 02:35:48;;;;;;;3.92;2.13;;;;;;;17.93;100.00;100107.41;4939852;29;20215;-75
2021/07/29 02:38:17;;;;;;;4.00;2.05;;;;;;;17.93;100.00;100115.66;4932353;29;20283;-75
2021/07/29 02:40:43;;;;;;;3.97;2.17;;;;;;;18.05;100.00;100118.50;4957803;28;20701;-74
2021/07/29 02:43:11;;;;;;;2.78;2.08;;;;;;;17.97;100.00;100116.63;4936560;29;20182;-76
2021/07/29 02:45:36;;;;;;;2.35;2.00;;;;;;;17.72;100.00;100114.81;4927963;28;20277;-74
2021/07/29 02:48:02;;;;;;;2.22;2.00;;;;;;;17.87;100.00;100114.25;4935654;29;20655;-75
2021/07/29 02:50:30;;;;;;;2.80;2.10;;;;;;;17.87;100.00;100117.78;4946096;28;20704;-75
2021/07/29 02:52:57;;;;;;;2.38;2.10;;;;;;;17.82;100.00;100117.19;4951738;29;20183;-75
2021/07/29 02:55:27;;;;;;;2.65;2.45;;;;;;;17.89;100.00;100106.47;4955565;28;20534;-75
2021/07/29 02:57:53;;;;;;;3.35;2.05;;;;;;;17.95;100.00;100102.41;4954753;29;20263;-77
2021/07/29 03:00:19;;;;;;;2.72;2.00;;;;;;;17.97;100.00;100098.16;4953764;28;20183;-74
2021/07/29 03:02:44;;;;;;;2.33;1.92;;;;;;;17.91;100.00;100091.28;4969537;28;20211;-75
2021/07/29 03:05:12;;;;;;;2.08;1.88;;;;;;;18.11;100.00;100086.94;4951364;29;20593;-75
2021/07/29 03:07:38;;;;;;;2.30;1.98;;;;;;;17.88;100.00;100088.38;4935014;29;20736;-76
2021/07/29 03:10:06;;;;;;;2.70;1.80;;;;;;;17.83;100.00;100072.06;4949973;28;20614;-75
2021/07/29 03:12:34;;;;;;;2.78;1.90;;;;;;;18.07;100.00;100083.22;4936146;29;20187;-74
2021/07/29 03:15:02;;;;;;;2.03;1.90;;;;;;;18.04;100.00;100092.13;4919801;29;20198;-75
2021/07/29 03:17:29;;;;;;;2.83;2.00;;;;;;;18.08;100.00;100093.09;4915919;29;20235;-75
2021/07/29 03:19:55;;;;;;;3.85;1.88;;;;;;;18.09;100.00;100109.25;4947956;29;20176;-74
2021/07/29 03:22:20;;;;;;;5.43;2.10;;;;;;;18.04;100.00;100109.44;4965361;28;20736;-75
2021/07/29 03:24:46;;;;;;;2.95;2.20;;;;;;;18.02;100.00;100114.47;4935540;29;20191;-75
2021/07/29 03:27:14;;;;;;;3.72;2.58;;;;;;;17.93;100.00;100119.22;4935117;29;20236;-75
2021/07/29 03:29:39;;;;;;;2.33;2.13;;;;;;;17.84;100.00;100112.16;4932241;29;20208;-73
2021/07/29 03:32:08;;;;;;;2.72;2.00;;;;;;;17.95;100.00;100113.41;4963771;28;20221;-74
2021/07/29 03:34:36;;;;;;;3.13;1.90;;;;;;;18.06;100.00;100114.59;4923767;29;20203;-75
2021/07/29 03:37:02;;;;;;;2.20;2.00;;;;;;;17.87;100.00;100116.97;4925557;29;20215;-75
2021/07/29 03:39:28;;;;;;;2.47;1.90;;;;;;;17.84;100.00;100117.66;4951281;29;20680;-75
2021/07/29 03:41:55;;;;;;;2.25;2.00;;;;;;;17.65;100.00;100111.78;4938317;28;20608;-74
2021/07/29 03:44:20;;;;;;;3.22;1.80;;;;;;;17.63;100.00;100122.28;4939148;29;20611;-75
2021/07/29 03:46:46;;;;;;;3.10;2.10;;;;;;;17.60;100.00;100112.00;4943982;28;20231;-75
2021/07/29 03:49:12;;;;;;;2.65;2.00;;;;;;;17.60;100.00;100106.50;4935306;29;20207;-74
2021/07/29 03:51:37;;;;;;;3.55;1.98;;;;;;;17.47;100.00;100112.19;4958999;28;20230;-74
2021/07/29 03:54:03;;;;;;;2.50;2.10;;;;;;;17.56;100.00;100111.00;4970704;28;20187;-75
2021/07/29 03:56:31;;;;;;;2.28;1.85;;;;;;;17.38;100.00;100120.50;4947133;28;20282;-73
2021/07/29 03:58:57;;;;;;;2.05;1.70;;;;;;;17.30;100.00;100117.75;4950797;29;20184;-74
2021/07/29 04:01:22;;;;;;;3.47;2.20;;;;;;;17.41;100.00;100117.06;4955278;28;20226;-74
2021/07/29 04:03:48;;;;;;;2.20;2.00;;;;;;;17.60;100.00;100122.97;4939049;29;20187;-75
2021/07/29 04:06:17;;;;;;;2.40;1.90;;;;;;;17.55;100.00;100109.41;4940751;28;20716;-74
2021/07/29 04:08:43;;;;;;;2.60;2.28;;;;;;;17.76;100.00;100107.50;4936584;29;20302;-74
2021/07/29 04:11:08;;;;;;;2.25;1.80;;;;;;;17.55;100.00;100112.16;4919115;29;20303;-73
2021/07/29 04:13:35;;;;;;;2.08;1.80;;;;;;;17.59;100.00;100104.88;4950550;29;20191;-75
2021/07/29 04:16:01;;;;;;;3.83;2.17;;;;;;;17.55;100.00;100120.41;4949716;28;20254;-74
2021/07/29 04:18:31;;;;;;;2.53;2.30;;;;;;;17.71;100.00;100115.97;4934476;29;20200;-73
2021/07/29 04:20:57;;;;;;;2.58;1.95;;;;;;;17.74;100.00;100112.53;4934138;29;20235;-73
2021/07/29 04:23:22;;;;;;;2.72;1.92;;;;;;;17.73;100.00;100116.44;4951165;28;20186;-74
2021/07/29 04:25:48;;;;;;;3.35;1.98;;;;;;;17.67;100.00;100117.75;4951653;28;20222;-73
2021/07/29 04:28:14;;;;;;;2.90;2.00;;;;;;;17.80;100.00;100127.69;4937102;29;20709;-73
2021/07/29 04:30:42;;;;;;;2.20;2.00;;;;;;;17.58;100.00;100114.25;4932582;29;20306;-72
2021/07/29 04:33:08;;;;;;;2.40;2.20;;;;;;;17.55;100.00;100125.09;4947539;29;20653;-73
2021/07/29 04:35:36;;;;;;;3.00;1.92;;;;;;;17.41;100.00;100133.53;4953331;28;20230;-73
2021/07/29 04:38:04;;;;;;;3.05;2.00;;;;;;;17.47;100.00;100124.00;4937248;29;20187;-72
2021/07/29 04:40:37;;;;;;;3.53;1.92;;;;;;;17.57;100.00;100134.63;4941702;28;20243;-72
2021/07/29 04:43:02;;;;;;;3.55;2.30;;;;;;;17.58;100.00;100130.75;4931292;29;20187;-72
2021/07/29 04:45:28;;;;;;;3.25;2.05;;;;;;;17.50;100.00;100125.28;4940408;28;20227;-73
2021/07/29 04:47:53;;;;;;;5.85;2.13;;;;;;;17.47;100.00;100118.50;4933968;29;20226;-73
2021/07/29 04:50:22;;;;;;;3.72;2.17;;;;;;;17.58;100.00;100135.41;4918093;29;20188;-72
2021/07/29 04:52:50;;;;;;;3.35;2.08;;;;;;;17.52;100.00;100125.75;4939927;29;20222;-70
2021/07/29 04:55:16;;;;;;;2.47;2.00;;;;;;;17.66;100.00;100112.59;4949880;28;20187;-73
2021/07/29 04:57:44;;;;;;;3.40;2.30;;;;;;;17.60;100.00;100127.63;4958696;28;20720;-72
2021/07/29 05:00:13;;;;;;;4.57;2.10;;;;;;;17.76;100.00;100122.06;4968251;28;20833;-75
2021/07/29 05:02:41;;;;;;;2.40;1.90;;;;;;;17.79;100.00;100132.38;4947014;29;20201;-73
2021/07/29 05:05:12;;;;;;;2.65;2.35;;;;;;;17.71;100.00;100132.44;4933615;28;20186;-72
2021/07/29 05:07:40;;;;;;;2.42;2.00;;;;;;;17.72;100.00;100126.59;4955897;28;20207;-70
2021/07/29 05:10:08;;;;;;;2.17;1.92;;;;;;;17.88;100.00;100133.16;4921059;28;20641;-72
2021/07/29 05:12:36;;;;;;;3.85;2.20;;;;;;;17.93;100.00;100134.88;4948684;28;20219;-73
2021/07/29 05:15:05;;;;;;;3.88;2.20;;;;;;;17.96;100.00;100128.72;4934094;29;20199;-71
2021/07/29 05:17:30;;;;;;;3.55;2.60;;;;;;;17.80;100.00;100127.69;4952882;28;20214;-72
2021/07/29 05:19:56;;;;;;;3.20;2.25;;;;;;;17.90;100.00;100124.56;4967115;28;20687;-72
2021/07/29 05:22:22;;;;;;;2.63;1.88;;;;;;;18.15;100.00;100130.75;4948111;28;20225;-73
2021/07/29 05:24:49;;;;;;;4.57;2.33;;;;;;;18.13;100.00;100119.28;4931965;29;20229;-71
2021/07/29 05:27:15;;;;;;;7.78;6.57;;;;;;;18.08;100.00;100129.63;4916590;29;20614;-74
2021/07/29 05:29:41;;;;;;;3.88;2.13;;;;;;;18.12;100.00;100129.81;4950966;28;20219;-72
2021/07/29 05:32:07;;;;;;;2.47;1.85;;;;;;;18.01;100.00;100123.06;4932561;29;20219;-75
2021/07/29 05:34:35;;;;;;;2.42;1.83;;;;;;;18.09;100.00;100135.94;4918085;29;20192;-74
2021/07/29 05:37:06;;;;;;;3.08;1.90;;;;;;;18.03;100.00;100123.53;4899911;29;20862;-72
2021/07/29 05:39:33;;;;;;;11.77;9.20;;;;;;;18.07;100.00;100127.22;4935134;29;20603;-72
2021/07/29 05:41:59;;;;;;;5.50;3.88;;;;;;;18.10;100.00;100137.56;4949229;29;20230;-74
2021/07/29 05:44:24;;;;;;;4.65;2.25;;;;;;;17.88;100.00;100129.59;4934793;28;20187;-74
2021/07/29 05:46:50;;;;;;;3.95;1.88;;;;;;;17.87;100.00;100127.97;4945985;28;20685;-72
2021/07/29 05:49:17;;;;;;;4.00;2.17;;;;;;;18.03;100.00;100124.31;4939993;29;20223;-71
2021/07/29 05:51:46;;;;;;;3.67;2.08;;;;;;;18.11;100.00;100130.94;4949347;29;20235;-72
2021/07/29 05:54:16;;;;;;;4.63;1.90;;;;;;;18.03;100.00;100140.00;4937113;28;20191;-72
2021/07/29 05:56:41;;;;;;;2.95;1.90;;;;;;;18.15;100.00;100125.25;4948770;28;20740;-71
2021/07/29 05:59:12;;;;;;;3.65;1.92;;;;;;;18.19;100.00;100130.88;4949624;29;20199;-73
2021/07/29 06:01:37;;;;;;;6.28;2.10;;;;;;;18.23;100.00;100123.56;4915096;29;20235;-72
2021/07/29 06:04:03;;;;;;;3.55;1.95;;;;;;;18.32;100.00;100130.59;4934391;29;20195;-73
2021/07/29 06:06:31;;;;;;;1.77;1.67;;;;;;;18.41;100.00;100136.06;4969410;28;20665;-72
2021/07/29 06:08:58;;;;;;;3.92;2.15;;;;;;;18.45;100.00;100129.53;4944538;29;20230;-73
2021/07/29 06:11:24;;;;;;;2.55;2.20;;;;;;;18.51;100.00;100134.50;4933988;29;20294;-73
2021/07/29 06:13:55;;;;;;;3.33;1.80;;;;;;;18.69;100.00;100118.63;4952065;29;20206;-73
2021/07/29 06:16:20;;;;;;;3.58;1.88;;;;;;;18.73;100.00;100125.84;4952772;28;20231;-74
2021/07/29 06:19:03;;;;;;;3.63;1.90;;;;;;;18.66;100.00;100130.31;4948998;29;20207;-73
2021/07/29 06:21:31;;;;;;;3.20;2.00;;;;;;;18.82;100.00;100125.78;4933494;28;20747;-73
2021/07/29 06:24:02;;;;;;;3.35;2.00;;;;;;;19.05;100.00;100128.66;4952642;28;20191;-74
2021/07/29 06:26:28;;;;;;;3.53;1.92;;;;;;;19.33;100.00;100132.38;4919604;29;20226;-72
2021/07/29 06:28:56;;;;;;;3.33;1.73;;;;;;;19.19;100.00;100140.13;4946462;29;20223;-74
2021/07/29 06:31:22;;;;;;;4.75;2.10;;;;;;;18.76;100.00;100129.91;4948405;28;20228;-72
2021/07/29 06:33:47;;;;;;;3.28;2.33;;;;;;;18.73;100.00;100136.88;4938059;29;20701;-73
2021/07/29 06:36:13;;;;;;;2.95;1.85;;;;;;;18.78;100.00;100128.41;4951367;28;20231;-73
2021/07/29 06:38:39;;;;;;;2.78;1.70;;;;;;;18.88;100.00;100128.81;4965365;28;20182;-74
2021/07/29 06:41:05;;;;;;;4.00;2.10;;;;;;;18.94;100.00;100121.94;4916579;29;20231;-73
2021/07/29 06:43:36;;;;;;;3.97;1.90;;;;;;;18.78;99.14;100127.63;4949112;29;20731;-71
2021/07/29 06:46:07;;;;;;;4.50;2.20;;;;;;;18.81;100.00;100137.94;4930189;28;20304;-74
2021/07/29 06:48:33;;;;;;;2.38;1.75;;;;;;;18.80;99.08;100117.06;4932385;29;20211;-74
2021/07/29 06:51:03;;;;;;;2.92;1.83;;;;;;;18.84;96.64;100132.56;4951244;28;20734;-74
2021/07/29 06:53:29;;;;;;;2.22;1.83;;;;;;;19.03;96.69;100130.94;4967725;28;20191;-75
2021/07/29 06:55:58;;;;;;;6.72;2.13;;;;;;;19.23;95.34;100138.34;4945484;28;20360;-73
2021/07/29 06:58:23;;;;;;;5.15;2.08;;;;;;;19.03;96.28;100130.94;4913620;29;20180;-74
2021/07/29 07:00:49;;;;;;;4.18;1.80;;;;;;;19.22;92.85;100133.97;4932848;29;20219;-73
2021/07/29 07:03:14;;;;;;;3.83;2.20;;;;;;;19.66;93.58;100133.91;4967907;28;20187;-72
2021/07/29 07:05:45;;;;;;;3.50;1.70;;;;;;;19.77;91.18;100129.53;4936201;29;20227;-73
2021/07/29 07:08:13;;;;;;;3.95;1.80;;;;;;;19.60;89.89;100126.22;4935816;29;20267;-75
2021/07/29 07:10:39;;;;;;;5.75;1.98;;;;;;;19.39;89.03;100134.56;4949726;29;20610;-73
2021/07/29 07:13:05;;;;;;;4.43;1.90;;;;;;;19.76;88.21;100128.75;4939885;29;20195;-75
2021/07/29 07:15:30;;;;;;;3.30;2.00;;;;;;;19.73;88.85;100134.94;4943249;28;20227;-73
2021/07/29 07:17:56;;;;;;;4.45;1.83;;;;;;;20.02;88.83;100137.47;4952450;29;20184;-73
2021/07/29 07:20:23;;;;;;;3.20;1.73;;;;;;;19.77;85.80;100135.84;4945888;28;20194;-73
2021/07/29 07:22:49;;;;;;;3.72;1.90;;;;;;;19.48;86.18;100123.44;4955693;28;20694;-73
2021/07/29 07:25:17;;;;;;;5.28;1.88;;;;;;;19.36;88.42;100140.75;4958563;28;20189;-75
2021/07/29 07:27:43;;;;;;;1.70;1.60;;;;;;;19.55;90.42;100132.75;4916809;29;20972;-74
2021/07/29 07:30:09;;;;;;;3.00;2.00;;;;;;;19.30;89.19;100141.31;4958887;28;20230;-73
2021/07/29 07:32:34;;;;;;;5.75;2.03;;;;;;;19.30;88.50;100136.63;4971371;28;20687;-73
2021/07/29 07:35:03;;;;;;;4.28;1.98;;;;;;;19.60;87.53;100137.25;4949583;28;20568;-73
2021/07/29 07:37:28;;;;;;;3.35;2.00;;;;;;;19.67;83.88;100130.81;4935570;29;20227;-75
2021/07/29 07:40:00;;;;;;;2.42;1.70;;;;;;;19.59;85.70;100141.13;4955800;28;20242;-73
2021/07/29 07:42:32;;;;;;;3.50;1.70;;;;;;;19.72;84.75;100143.53;4954774;28;20227;-71
2021/07/29 07:44:58;;;;;;;3.50;2.00;;;;;;;19.74;81.92;100142.06;4951273;29;20238;-73
2021/07/29 07:47:24;;;;;;;5.43;1.70;;;;;;;19.85;83.44;100146.00;4950809;28;20223;-74
2021/07/29 07:49:52;;;;;;;5.13;1.90;;;;;;;19.99;81.16;100146.44;4952964;29;20215;-72
2021/07/29 07:52:19;;;;;;;3.63;2.03;;;;;;;20.16;77.70;100138.72;4954424;28;20300;-71
2021/07/29 07:54:47;;;;;;;4.70;1.80;;;;;;;20.41;79.25;100136.72;4938046;29;20625;-74
2021/07/29 07:57:18;;;;;;;2.30;1.58;;;;;;;20.36;79.82;100136.94;4950639;28;20232;-75
2021/07/29 07:59:46;;;;;;;3.33;1.95;;;;;;;19.91;81.21;100135.53;4935837;29;20176;-72
2021/07/29 08:02:13;;;;;;;4.40;2.40;;;;;;;20.24;81.05;100142.50;4954129;28;20226;-74
2021/07/29 08:04:39;;;;;;;3.50;1.70;;;;;;;20.27;78.88;100128.78;4954879;28;20206;-73
2021/07/29 08:07:05;;;;;;;3.67;1.85;;;;;;;20.28;78.28;100124.09;4935434;28;20323;-74
2021/07/29 08:09:31;;;;;;;3.83;1.63;;;;;;;19.77;79.06;100135.03;4950865;29;20216;-74
2021/07/29 08:11:59;;;;;;;2.70;1.80;;;;;;;19.82;80.72;100141.16;4953793;28;20253;-76
2021/07/29 08:14:28;;;;;;;4.00;2.00;;;;;;;19.70;80.54;100138.38;4970291;28;20187;-74
2021/07/29 08:16:58;;;;;;;4.10;2.08;;;;;;;19.77;80.97;100138.59;4939103;29;20631;-72
2021/07/29 08:19:26;;;;;;;3.47;1.80;;;;;;;19.68;78.84;100135.16;4949953;28;20279;-76
2021/07/29 08:21:51;;;;;;;5.40;1.80;;;;;;;19.66;81.46;100138.63;4949171;29;20227;-74
2021/07/29 08:24:19;;;;;;;3.60;1.95;;;;;;;19.54;85.13;100133.91;4954145;28;20708;-74
2021/07/29 08:26:45;;;;;;;4.32;2.28;;;;;;;19.51;84.91;100139.28;4919549;29;20235;-72
2021/07/29 08:29:13;;;;;;;5.93;2.30;;;;;;;19.50;84.02;100129.41;4935044;29;20922;-71
2021/07/29 08:31:38;;;;;;;5.20;2.10;;;;;;;19.66;81.42;100140.22;4938182;28;20226;-73
2021/07/29 08:34:04;;;;;;;3.25;2.08;;;;;;;19.58;80.44;100131.25;4970486;28;20226;-73
2021/07/29 08:36:31;;;;;;;6.57;2.00;;;;;;;19.71;79.89;100141.94;4943556;29;20219;-74
2021/07/29 08:38:57;;;;;;;3.65;1.80;;;;;;;19.68;78.62;100137.91;4934479;29;20203;-72
2021/07/29 08:41:25;;;;;;;4.43;1.85;;;;;;;19.66;77.60;100135.84;4942028;28;20681;-73
2021/07/29 08:43:55;;;;;;;3.22;1.80;;;;;;;19.86;80.06;100131.06;4953721;28;20186;-75
2021/07/29 08:46:25;;;;;;;4.07;1.95;;;;;;;19.79;82.39;100141.81;4949204;28;20705;-74
2021/07/29 08:48:51;;;;;;;6.00;2.00;;;;;;;19.59;83.91;100155.69;4938622;28;20685;-74
2021/07/29 08:51:20;;;;;;;4.18;1.83;;;;;;;19.58;82.64;100158.81;4948800;28;20234;-73
2021/07/29 08:53:48;;;;;;;5.10;2.22;;;;;;;19.76;80.90;100167.34;4949982;29;20175;-72
2021/07/29 08:56:14;;;;;;;3.53;2.10;;;;;;;19.55;80.92;100159.50;4954307;28;20227;-73
2021/07/29 08:58:42;;;;;;;7.95;2.38;;;;;;;19.52;82.63;100160.97;4937745;29;20179;-73
2021/07/29 09:01:09;;;;;;;4.65;2.10;;;;;;;19.51;85.33;100158.59;4950707;28;20226;-73
2021/07/29 09:03:38;;;;;;;3.90;2.05;;;;;;;19.92;82.85;100165.50;4950170;29;20183;-76
2021/07/29 09:06:09;;;;;;;4.03;2.08;;;;;;;20.10;82.86;100158.59;4935839;29;20653;-73
2021/07/29 09:08:48;;;;;;;5.20;2.13;;;;;;;20.53;80.46;100160.38;4952874;28;20230;-75
2021/07/29 09:11:35;;;;;;;3.92;1.95;;;;;;;20.76;76.25;100147.66;4934306;29;20959;-73
2021/07/29 09:14:12;;;;;;;3.53;1.70;;;;;;;20.95;75.50;100158.84;4949778;29;20207;-74
2021/07/29 09:16:57;;;;;;;4.38;1.98;;;;;;;21.07;74.62;100137.50;4938827;29;20214;-72
2021/07/29 09:19:35;;;;;;;3.70;1.80;;;;;;;21.23;70.06;100136.38;4968764;28;20660;-73
2021/07/29 09:22:20;;;;;;;4.05;1.80;;;;;;;21.50;70.30;100141.06;4957771;28;20659;-74
2021/07/29 09:25:03;;;;;;;3.67;1.60;;;;;;;21.16;67.28;100151.97;4915122;29;20180;-76
2021/07/29 09:27:37;;;;;;;2.78;1.50;;;;;;;20.87;66.28;100148.75;4928720;28;20273;-73
2021/07/29 09:30:31;;;;;;;2.08;1.33;;;;;;;20.67;66.30;100158.03;4967992;28;20222;-73
2021/07/29 09:33:10;;;;;;;3.80;1.52;;;;;;;20.70;66.34;100148.28;4920645;29;20239;-73
2021/07/29 09:35:50;;;;;;;4.38;1.50;;;;;;;21.16;65.51;100160.25;4949048;29;20321;-74
2021/07/29 09:38:32;;;;;;;2.63;1.30;;;;;;;20.57;63.89;100160.47;4964659;28;20198;-72
2021/07/29 09:40:59;;;;;;;4.00;1.60;;;;;;;20.56;66.38;100150.56;4921962;29;20693;-74
2021/07/29 09:43:26;;;;;;;2.25;1.30;;;;;;;20.60;66.86;100146.78;4936793;29;20172;-74
2021/07/29 09:45:53;;;;;;;2.92;1.55;;;;;;;20.69;65.07;100147.44;4948840;28;20227;-75
2021/07/29 09:48:21;;;;;;;4.43;1.33;;;;;;;21.02;66.92;100151.56;4963692;28;20262;-73
2021/07/29 09:51:00;;;;;;;2.70;1.50;;;;;;;21.24;62.34;100137.97;4952198;29;20219;-73
2021/07/29 09:53:30;;;;;;;4.00;1.40;;;;;;;20.90;64.45;100154.38;4919220;29;20665;-74
2021/07/29 09:55:59;;;;;;;3.03;1.42;;;;;;;21.13;63.99;100154.63;4932956;29;20302;-75
2021/07/29 09:58:24;;;;;;;2.88;1.70;;;;;;;21.22;61.74;100144.22;4952079;28;20667;-75
2021/07/29 10:00:55;;;;;;;3.67;1.52;;;;;;;21.52;65.38;100138.75;4967841;28;20242;-72
2021/07/29 10:03:23;;;;;;;3.05;1.27;;;;;;;21.89;56.31;100143.63;4934660;29;20195;-74
2021/07/29 10:06:02;;;;;;;3.05;1.50;;;;;;;22.43;53.85;100148.06;4950790;28;20227;-74
2021/07/29 10:08:41;;;;;;;4.80;1.30;;;;;;;22.61;54.81;100135.41;4947214;29;20211;-75
2021/07/29 10:11:12;;;;;;;2.80;1.25;;;;;;;22.46;54.91;100141.81;4953336;28;20708;-73
2021/07/29 10:13:38;;;;;;;6.88;1.40;;;;;;;22.21;56.35;100146.00;4923919;29;20184;-75
2021/07/29 10:16:07;;;;;;;2.75;1.20;;;;;;;22.34;56.00;100143.91;4949418;29;20219;-72
2021/07/29 10:18:51;;;;;;;3.45;1.45;;;;;;;22.33;53.98;100142.31;4961995;28;20864;-74
2021/07/29 10:21:29;;;;;;;2.38;1.38;;;;;;;22.50;54.11;100143.50;4953623;28;20277;-73
2021/07/29 10:24:00;;;;;;;2.35;1.00;;;;;;;22.63;55.62;100141.41;4934114;29;20759;-73
2021/07/29 10:26:29;;;;;;;2.90;1.02;;;;;;;22.45;51.28;100142.97;4898098;29;20228;-73
2021/07/29 10:29:17;;;;;;;3.25;1.30;;;;;;;22.39;51.35;100146.41;4946547;28;20727;-74
2021/07/29 10:31:51;;;;;;;3.67;1.23;;;;;;;21.87;53.25;100150.69;4948093;28;20227;-72
2021/07/29 10:34:29;;;;;;;4.65;1.30;;;;;;;22.14;52.95;100145.81;4935230;29;20190;-73
2021/07/29 10:36:59;;;;;;;4.00;1.10;;;;;;;22.61;52.19;100149.28;4932545;28;20223;-73
2021/07/29 10:39:24;;;;;;;2.45;1.13;;;;;;;22.77;51.45;100152.78;4948992;28;20553;-74
2021/07/29 10:41:54;;;;;;;1.73;1.00;;;;;;;22.43;52.02;100159.16;4934836;29;20231;-73
2021/07/29 10:44:34;;;;;;;8.95;1.92;;;;;;;22.78;51.99;100155.16;4933242;29;20188;-72
2021/07/29 10:47:03;;;;;;;7.28;2.05;;;;;;;23.20;51.83;100168.75;4942531;28;20242;-73
2021/07/29 10:49:44;;;;;;;5.65;1.30;;;;;;;22.90;50.60;100153.09;4963858;28;20246;-72
2021/07/29 10:52:10;;;;;;;2.28;1.20;;;;;;;22.54;51.28;100149.13;4951667;28;20231;-71
2021/07/29 10:54:42;;;;;;;5.28;1.25;;;;;;;22.69;48.71;100145.47;4919717;29;20198;-73
2021/07/29 10:57:11;;;;;;;2.60;1.10;;;;;;;22.30;49.25;100165.19;4932878;28;20231;-72
2021/07/29 10:59:39;;;;;;;2.10;1.10;;;;;;;21.66;51.05;100166.75;4947847;29;20275;-74
2021/07/29 11:02:22;;;;;;;2.72;1.20;;;;;;;21.42;52.39;100166.09;4951763;28;20231;-75
2021/07/29 11:04:57;;;;;;;2.38;1.13;;;;;;;21.38;53.81;100162.41;4936682;28;20554;-73
2021/07/29 11:07:22;;;;;;;3.38;1.58;;;;;;;21.55;52.35;100154.59;4947717;28;20731;-72
2021/07/29 11:09:48;;;;;;;2.15;1.05;;;;;;;21.32;54.12;100161.88;4948274;29;20203;-74
2021/07/29 11:12:17;;;;;;;4.07;1.38;;;;;;;21.34;54.30;100165.09;4951824;29;20716;-73
2021/07/29 11:14:42;;;;;;;3.28;1.45;;;;;;;21.26;55.46;100170.78;4937400;29;20834;-73
2021/07/29 11:17:08;;;;;;;2.85;1.55;;;;;;;21.42;55.29;100166.91;4932480;28;20314;-73
2021/07/29 11:19:44;;;;;;;5.28;1.35;;;;;;;21.38;56.54;100174.28;4946320;28;20711;-74
2021/07/29 11:22:14;;;;;;;5.85;1.33;;;;;;;21.19;57.26;100186.34;4920775;29;20637;-74
2021/07/29 11:24:41;;;;;;;3.33;1.20;;;;;;;21.65;55.19;100165.16;4920661;29;20189;-78